createdAt,value
2017-11-29T00:00:49.798Z,5.30
2017-11-29T00:03:17.254Z,5.30
2017-11-29T00:05:44.704Z,5.30
2017-11-29T00:08:12.148Z,5.30
2017-11-29T00:10:39.582Z,5.30
2017-11-29T00:13:07.012Z,5.20
2017-11-29T00:15:34.446Z,5.20
2017-11-29T00:18:01.878Z,5.20
2017-11-29T00:20:29.321Z,5.20
2017-11-29T00:22:56.778Z,5.10
2017-11-29T00:25:24.201Z,5.00
2017-11-29T00:27:52.401Z,5.00
2017-11-29T00:30:19.841Z,5.00
2017-11-29T00:32:48.046Z,5.00
2017-11-29T00:35:15.473Z,5.00
2017-11-29T00:37:42.937Z,5.00
2017-11-29T00:40:10.373Z,5.00
2017-11-29T00:42:38.596Z,5.00
2017-11-29T00:45:06.076Z,5.00
2017-11-29T00:47:33.503Z,5.00
2017-11-29T00:50:00.953Z,5.00
2017-11-29T00:52:28.392Z,5.00
2017-11-29T00:54:55.829Z,4.90
2017-11-29T00:57:24.057Z,4.70
2017-11-29T00:59:51.493Z,4.70
2017-11-29T01:02:18.928Z,4.80
2017-11-29T01:04:47.149Z,4.70
2017-11-29T01:07:14.582Z,4.70
2017-11-29T01:09:42.061Z,4.70
2017-11-29T01:12:09.497Z,4.80
2017-11-29T01:14:36.934Z,4.80
2017-11-29T01:17:04.375Z,4.80
2017-11-29T01:19:32.601Z,4.80
2017-11-29T01:22:00.038Z,4.80
2017-11-29T01:24:27.484Z,4.80
2017-11-29T01:26:54.918Z,4.80
2017-11-29T01:29:23.144Z,4.80
2017-11-29T01:31:50.580Z,4.80
2017-11-29T01:34:18.008Z,4.80
2017-11-29T01:36:46.220Z,4.70
2017-11-29T01:39:13.656Z,4.70
2017-11-29T01:41:41.097Z,4.70
2017-11-29T01:44:09.300Z,4.70
2017-11-29T01:46:36.740Z,4.70
2017-11-29T01:49:04.171Z,4.80
2017-11-29T01:51:32.373Z,4.80
2017-11-29T01:53:59.808Z,4.80
2017-11-29T01:56:28.021Z,4.70
2017-11-29T01:58:55.488Z,4.60
2017-11-29T02:01:22.929Z,4.60
2017-11-29T02:03:50.361Z,4.60
2017-11-29T02:06:26.752Z,4.60
2017-11-29T02:08:54.201Z,4.60
2017-11-29T02:11:21.884Z,4.60
2017-11-29T02:13:49.319Z,4.60
2017-11-29T02:16:16.752Z,4.60
2017-11-29T02:18:44.959Z,4.60
2017-11-29T02:21:12.391Z,4.60
2017-11-29T02:23:39.821Z,4.60
2017-11-29T02:26:07.260Z,4.60
2017-11-29T02:28:34.700Z,4.60
2017-11-29T02:31:02.158Z,4.60
2017-11-29T02:33:29.577Z,4.60
2017-11-29T02:35:57.012Z,4.60
2017-11-29T02:38:25.209Z,4.60
2017-11-29T02:41:04.575Z,4.60
2017-11-29T02:43:32.016Z,4.50
2017-11-29T02:45:59.441Z,4.50
2017-11-29T02:48:27.648Z,4.40
2017-11-29T02:50:55.084Z,4.40
2017-11-29T02:53:22.512Z,4.40
2017-11-29T02:55:50.712Z,4.20
2017-11-29T02:58:18.149Z,4.20
2017-11-29T03:00:46.350Z,4.10
2017-11-29T03:03:13.781Z,4.10
2017-11-29T03:05:41.982Z,4.00
2017-11-29T03:08:09.420Z,4.00
2017-11-29T03:10:36.853Z,3.90
2017-11-29T03:13:04.289Z,3.90
2017-11-29T03:15:31.720Z,3.90
2017-11-29T03:17:59.156Z,3.80
2017-11-29T03:20:26.591Z,3.80
2017-11-29T03:22:54.797Z,3.80
2017-11-29T03:25:22.224Z,3.90
2017-11-29T03:27:50.432Z,3.90
2017-11-29T03:30:17.866Z,3.80
2017-11-29T03:32:46.065Z,3.80
2017-11-29T03:35:13.497Z,3.80
2017-11-29T03:37:40.936Z,3.80
2017-11-29T03:40:09.127Z,3.60
2017-11-29T03:42:36.569Z,3.60
2017-11-29T03:45:04.769Z,3.70
2017-11-29T03:47:32.204Z,3.70
2017-11-29T03:50:00.404Z,3.80
2017-11-29T03:52:27.844Z,3.80
2017-11-29T03:54:55.276Z,3.80
2017-11-29T03:57:23.489Z,3.70
2017-11-29T03:59:50.932Z,3.70
2017-11-29T04:02:18.357Z,3.60
2017-11-29T04:04:45.792Z,3.60
2017-11-29T04:07:13.224Z,3.60
2017-11-29T04:09:40.660Z,3.60
2017-11-29T04:12:08.100Z,3.50
2017-11-29T04:14:36.303Z,3.40
2017-11-29T04:17:03.726Z,3.30
2017-11-29T04:19:31.942Z,3.10
2017-11-29T04:21:59.362Z,3.10
2017-11-29T04:24:27.559Z,2.90
2017-11-29T04:26:54.995Z,2.80
2017-11-29T04:29:23.209Z,2.70
2017-11-29T04:31:50.645Z,2.70
2017-11-29T04:34:18.077Z,2.70
2017-11-29T04:36:46.281Z,2.60
2017-11-29T04:39:13.733Z,2.60
2017-11-29T04:41:41.161Z,2.80
2017-11-29T04:44:09.368Z,3.00
2017-11-29T04:46:36.798Z,3.00
2017-11-29T04:49:04.232Z,3.00
2017-11-29T04:51:31.665Z,3.00
2017-11-29T04:53:59.105Z,3.00
2017-11-29T04:56:26.533Z,3.10
2017-11-29T04:58:53.972Z,3.10
2017-11-29T05:01:22.193Z,3.00
2017-11-29T05:03:49.629Z,2.90
2017-11-29T05:06:17.060Z,3.00
2017-11-29T05:08:45.880Z,3.10
2017-11-29T05:11:13.312Z,3.10
2017-11-29T05:13:40.752Z,3.20
2017-11-29T05:16:08.952Z,3.20
2017-11-29T05:18:36.436Z,3.20
2017-11-29T05:21:03.873Z,3.30
2017-11-29T05:23:31.304Z,3.40
2017-11-29T05:25:59.508Z,3.50
2017-11-29T05:28:26.949Z,3.50
2017-11-29T05:30:54.377Z,3.40
2017-11-29T05:33:22.589Z,3.40
2017-11-29T05:35:50.031Z,3.40
2017-11-29T05:38:17.473Z,3.40
2017-11-29T05:40:45.677Z,3.50
2017-11-29T05:43:13.108Z,3.50
2017-11-29T05:45:41.313Z,3.70
2017-11-29T05:48:08.749Z,3.70
2017-11-29T05:50:36.184Z,3.70
2017-11-29T05:53:04.376Z,3.80
2017-11-29T05:55:31.822Z,3.80
2017-11-29T05:58:00.025Z,3.90
2017-11-29T06:00:27.459Z,3.90
2017-11-29T06:02:54.896Z,3.90
2017-11-29T06:05:23.110Z,4.00
2017-11-29T06:07:50.538Z,4.00
2017-11-29T06:10:18.737Z,4.10
2017-11-29T06:12:46.168Z,4.00
2017-11-29T06:15:14.376Z,4.00
2017-11-29T06:17:41.800Z,3.90
2017-11-29T06:20:09.231Z,4.00
2017-11-29T06:22:36.672Z,4.00
2017-11-29T06:25:04.110Z,4.10
2017-11-29T06:27:31.541Z,4.10
2017-11-29T06:29:59.000Z,4.10
2017-11-29T06:32:26.432Z,4.10
2017-11-29T06:34:54.628Z,4.00
2017-11-29T06:37:22.073Z,4.00
2017-11-29T06:39:49.500Z,3.90
2017-11-29T06:42:16.937Z,3.90
2017-11-29T06:44:44.371Z,3.90
2017-11-29T06:47:11.808Z,3.90
2017-11-29T06:49:39.245Z,3.90
2017-11-29T06:52:07.449Z,3.90
2017-11-29T06:54:34.876Z,3.90
2017-11-29T06:57:03.081Z,4.00
2017-11-29T06:59:30.513Z,3.90
2017-11-29T07:01:57.952Z,3.90
2017-11-29T07:04:26.152Z,4.00
2017-11-29T07:06:53.593Z,3.90
2017-11-29T07:09:21.793Z,4.00
2017-11-29T07:14:40.961Z,4.10
2017-11-29T07:17:08.392Z,4.10
2017-11-29T07:19:36.588Z,4.10
2017-11-29T07:22:04.029Z,4.10
2017-11-29T07:24:32.237Z,4.10
2017-11-29T07:26:59.674Z,4.10
2017-11-29T07:29:27.103Z,4.10
2017-11-29T07:31:55.303Z,4.20
2017-11-29T07:34:22.733Z,4.20
2017-11-29T07:36:50.936Z,4.30
2017-11-29T07:39:18.368Z,4.30
2017-11-29T07:41:46.568Z,4.40
2017-11-29T07:44:14.014Z,4.30
2017-11-29T07:46:41.457Z,4.40
2017-11-29T07:49:09.656Z,4.40
2017-11-29T07:51:37.099Z,4.40
2017-11-29T07:54:04.536Z,4.40
2017-11-29T07:56:32.740Z,4.50
2017-11-29T07:59:00.176Z,4.50
2017-11-29T08:01:28.372Z,4.50
2017-11-29T08:03:55.804Z,4.50
2017-11-29T08:06:24.005Z,4.60
2017-11-29T08:08:51.444Z,4.60
2017-11-29T08:11:19.637Z,4.60
2017-11-29T08:13:47.071Z,4.60
2017-11-29T08:16:15.274Z,4.60
2017-11-29T08:18:42.712Z,4.60
2017-11-29T08:21:10.145Z,4.60
2017-11-29T08:23:38.357Z,4.60
2017-11-29T08:26:05.785Z,4.60
2017-11-29T08:28:33.984Z,4.60
2017-11-29T08:31:01.416Z,4.60
2017-11-29T08:33:29.628Z,4.80
2017-11-29T08:35:57.056Z,4.80
2017-11-29T08:38:24.493Z,4.90
2017-11-29T08:40:52.696Z,4.90
2017-11-29T08:43:20.144Z,4.90
2017-11-29T08:45:47.568Z,5.00
2017-11-29T08:48:15.008Z,5.00
2017-11-29T08:50:42.441Z,5.00
2017-11-29T08:53:09.883Z,5.00
2017-11-29T08:55:37.309Z,5.00
2017-11-29T08:58:05.521Z,5.20
2017-11-29T09:00:32.945Z,5.20
2017-11-29T09:03:01.149Z,5.20
2017-11-29T09:08:19.216Z,5.30
2017-11-29T09:10:46.648Z,5.30
2017-11-29T09:13:14.111Z,5.40
2017-11-29T09:15:41.531Z,5.40
2017-11-29T09:18:09.737Z,5.60
2017-11-29T09:20:37.181Z,5.70
2017-11-29T09:23:04.615Z,5.70
2017-11-29T09:25:32.817Z,5.70
2017-11-29T09:28:00.244Z,5.70
2017-11-29T09:30:28.450Z,5.90
2017-11-29T09:32:55.879Z,5.80
2017-11-29T09:35:24.088Z,6.00
2017-11-29T09:37:51.535Z,5.90
2017-11-29T09:40:18.969Z,5.90
2017-11-29T09:42:47.201Z,6.00
2017-11-29T09:45:14.635Z,6.00
2017-11-29T09:47:42.114Z,6.00
2017-11-29T09:50:09.556Z,6.00
2017-11-29T09:52:36.992Z,5.90
2017-11-29T09:55:04.432Z,5.90
2017-11-29T09:57:32.632Z,5.90
2017-11-29T10:00:00.064Z,5.90
2017-11-29T10:02:28.252Z,5.80
2017-11-29T10:04:55.689Z,5.80
2017-11-29T10:07:23.888Z,5.70
2017-11-29T10:09:51.326Z,5.70
2017-11-29T10:12:19.512Z,5.90
2017-11-29T10:14:47.079Z,5.80
2017-11-29T10:17:14.496Z,5.90
2017-11-29T10:19:42.709Z,5.90
2017-11-29T10:22:10.132Z,5.90
2017-11-29T10:24:38.341Z,5.80
2017-11-29T10:27:05.788Z,5.80
2017-11-29T10:29:33.226Z,5.80
2017-11-29T10:32:01.426Z,5.80
2017-11-29T10:34:28.868Z,5.80
2017-11-29T10:36:56.336Z,5.80
2017-11-29T10:39:23.763Z,5.70
2017-11-29T10:41:51.960Z,5.50
2017-11-29T10:44:19.395Z,5.50
2017-11-29T10:46:47.600Z,5.50
2017-11-29T10:49:15.056Z,5.40
2017-11-29T10:51:42.492Z,5.40
2017-11-29T10:54:09.986Z,5.40
2017-11-29T10:56:38.111Z,5.40
2017-11-29T10:59:06.318Z,5.40
2017-11-29T11:01:33.770Z,5.40
2017-11-29T11:04:01.201Z,5.40
2017-11-29T11:06:29.404Z,5.40
2017-11-29T11:08:56.842Z,5.40
2017-11-29T11:11:24.278Z,5.40
2017-11-29T11:13:52.481Z,5.50
2017-11-29T11:16:19.908Z,5.50
2017-11-29T11:18:48.125Z,5.60
2017-11-29T11:21:15.580Z,5.60
2017-11-29T11:23:43.048Z,5.70
2017-11-29T11:26:10.485Z,5.80
2017-11-29T11:28:37.925Z,5.70
2017-11-29T11:31:05.367Z,5.70
2017-11-29T11:33:33.555Z,5.70
2017-11-29T11:36:00.993Z,5.70
2017-11-29T11:38:29.188Z,5.70
2017-11-29T11:40:56.628Z,5.70
2017-11-29T11:43:24.832Z,5.80
2017-11-29T11:45:52.268Z,5.80
2017-11-29T11:48:19.700Z,5.90
2017-11-29T11:50:47.156Z,5.80
2017-11-29T11:53:14.597Z,5.80
2017-11-29T11:55:42.028Z,5.80
2017-11-29T11:58:09.462Z,5.90
2017-11-29T12:00:36.896Z,5.90
2017-11-29T12:03:05.096Z,5.80
2017-11-29T12:05:32.543Z,5.80
2017-11-29T12:07:59.971Z,5.70
2017-11-29T12:10:28.164Z,5.40
2017-11-29T12:12:55.604Z,5.40
2017-11-29T12:15:23.804Z,5.40
2017-11-29T12:17:51.255Z,5.40
2017-11-29T12:20:18.679Z,5.30
2017-11-29T12:22:46.123Z,5.30
2017-11-29T12:25:13.556Z,5.20
2017-11-29T12:27:40.989Z,5.30
2017-11-29T12:30:08.418Z,5.20
2017-11-29T12:32:36.620Z,5.20
2017-11-29T12:35:04.053Z,5.20
2017-11-29T12:37:32.260Z,5.20
2017-11-29T12:39:59.685Z,5.20
2017-11-29T12:42:27.906Z,5.20
2017-11-29T12:44:55.367Z,5.10
2017-11-29T12:47:22.801Z,5.20
2017-11-29T12:50:02.093Z,5.20
2017-11-29T12:52:30.296Z,5.30
2017-11-29T12:54:57.849Z,5.30
2017-11-29T12:57:25.290Z,5.30
2017-11-29T12:59:53.497Z,5.30
2017-11-29T13:02:20.916Z,5.30
2017-11-29T13:04:49.144Z,5.30
2017-11-29T13:07:16.588Z,5.30
2017-11-29T13:09:44.023Z,5.30
2017-11-29T13:12:11.468Z,5.30
2017-11-29T13:14:39.669Z,5.20
2017-11-29T13:17:07.088Z,5.20
2017-11-29T13:19:35.292Z,5.30
2017-11-29T13:22:02.741Z,5.30
2017-11-29T13:24:30.921Z,5.30
2017-11-29T13:26:58.359Z,5.30
2017-11-29T13:29:25.796Z,5.30
2017-11-29T13:31:54.016Z,5.20
2017-11-29T13:34:21.445Z,5.20
2017-11-29T13:36:49.638Z,5.10
2017-11-29T13:39:17.092Z,5.10
2017-11-29T13:41:44.645Z,5.10
2017-11-29T13:44:12.082Z,5.10
2017-11-29T13:46:40.280Z,5.00
2017-11-29T13:49:07.715Z,5.00
2017-11-29T13:51:35.921Z,5.00
2017-11-29T13:54:03.344Z,5.00
2017-11-29T13:56:31.540Z,5.10
2017-11-29T13:58:58.973Z,5.10
2017-11-29T14:01:27.178Z,5.20
2017-11-29T14:03:54.604Z,5.10
2017-11-29T14:06:22.805Z,5.10
2017-11-29T14:08:50.236Z,5.20
2017-11-29T14:11:18.439Z,5.20
2017-11-29T14:13:45.882Z,5.20
2017-11-29T14:16:13.311Z,5.20
2017-11-29T14:18:40.740Z,5.10
2017-11-29T14:21:08.939Z,5.20
2017-11-29T14:23:37.144Z,5.10
2017-11-29T14:26:04.579Z,5.10
2017-11-29T14:28:32.777Z,5.10
2017-11-29T14:31:00.217Z,5.10
2017-11-29T14:33:28.409Z,5.10
2017-11-29T14:35:55.848Z,5.10
2017-11-29T14:38:24.045Z,5.20
2017-11-29T14:40:51.485Z,5.20
2017-11-29T14:43:18.908Z,5.10
2017-11-29T14:45:46.344Z,5.10
2017-11-29T14:48:13.776Z,5.20
2017-11-29T14:50:41.208Z,5.20
2017-11-29T14:53:08.641Z,5.20
2017-11-29T14:55:36.844Z,5.00
2017-11-29T14:58:04.272Z,5.00
2017-11-29T15:00:32.477Z,5.10
2017-11-29T15:02:59.912Z,5.00
2017-11-29T15:05:28.117Z,5.10
2017-11-29T15:07:55.569Z,5.00
2017-11-29T15:10:23.004Z,5.00
2017-11-29T15:12:51.202Z,4.90
2017-11-29T15:15:18.644Z,4.90
2017-11-29T15:17:46.077Z,4.90
2017-11-29T15:20:14.280Z,4.90
2017-11-29T15:22:41.711Z,4.90
2017-11-29T15:25:09.908Z,4.80
2017-11-29T15:27:37.335Z,4.70
2017-11-29T15:30:05.543Z,4.70
2017-11-29T15:32:34.537Z,4.70
2017-11-29T15:35:01.972Z,4.70
2017-11-29T15:37:30.173Z,4.60
2017-11-29T15:39:57.620Z,4.60
2017-11-29T15:42:25.060Z,4.60
2017-11-29T15:44:53.255Z,4.70
2017-11-29T15:47:20.698Z,4.60
2017-11-29T15:49:48.134Z,4.70
2017-11-29T15:52:16.352Z,4.70
2017-11-29T15:54:43.784Z,4.60
2017-11-29T15:57:11.222Z,4.70
2017-11-29T15:59:39.426Z,4.60
2017-11-29T16:04:41.504Z,4.70
2017-11-29T16:07:08.941Z,4.70
2017-11-29T16:09:37.137Z,4.70
2017-11-29T16:12:04.574Z,4.70
2017-11-29T16:14:32.769Z,4.70
2017-11-29T16:17:00.205Z,4.60
2017-11-29T16:19:27.645Z,4.60
2017-11-29T16:21:55.852Z,4.60
2017-11-29T16:24:23.292Z,4.60
2017-11-29T16:26:51.492Z,4.50
2017-11-29T16:29:18.920Z,4.50
2017-11-29T16:31:46.359Z,4.50
2017-11-29T16:34:14.553Z,4.40
2017-11-29T16:36:41.987Z,4.40
2017-11-29T16:39:10.191Z,4.20
2017-11-29T16:41:37.621Z,4.20
2017-11-29T16:44:05.823Z,4.10
2017-11-29T16:46:33.250Z,4.00
2017-11-29T16:49:01.444Z,4.10
2017-11-29T16:51:28.881Z,4.10
2017-11-29T16:53:57.085Z,4.00
2017-11-29T16:56:24.524Z,4.00
2017-11-29T16:58:52.725Z,4.00
2017-11-29T17:01:20.199Z,4.00
2017-11-29T17:03:47.636Z,4.10
2017-11-29T17:06:15.063Z,4.10
2017-11-29T17:08:43.275Z,4.20
2017-11-29T17:11:10.704Z,4.20
2017-11-29T17:13:38.153Z,4.20
2017-11-29T17:16:06.353Z,4.20
2017-11-29T17:18:33.796Z,4.20
2017-11-29T17:21:01.223Z,4.10
2017-11-29T17:23:29.443Z,4.00
2017-11-29T17:25:56.864Z,4.00
2017-11-29T17:28:25.062Z,3.80
2017-11-29T17:30:52.500Z,3.80
2017-11-29T17:33:20.697Z,3.70
2017-11-29T17:35:48.133Z,3.60
2017-11-29T17:38:15.570Z,3.70
2017-11-29T17:40:43.912Z,3.60
2017-11-29T17:43:11.354Z,3.60
2017-11-29T17:45:38.779Z,3.60
2017-11-29T17:48:06.212Z,3.60
2017-11-29T17:50:34.727Z,3.50
2017-11-29T17:53:02.169Z,3.50
2017-11-29T17:55:30.366Z,3.50
2017-11-29T17:57:58.177Z,3.50
2017-11-29T18:00:26.372Z,3.30
2017-11-29T18:02:54.585Z,3.20
2017-11-29T18:05:22.028Z,3.20
2017-11-29T18:07:49.467Z,3.20
2017-11-29T18:10:17.668Z,3.30
2017-11-29T18:12:45.095Z,3.30
2017-11-29T18:15:14.241Z,3.20
2017-11-29T18:17:41.680Z,3.20
2017-11-29T18:20:09.112Z,3.30
2017-11-29T18:22:36.543Z,3.20
2017-11-29T18:25:04.758Z,3.20
2017-11-29T18:27:32.189Z,3.20
2017-11-29T18:30:00.397Z,3.40
2017-11-29T18:32:27.828Z,3.30
2017-11-29T18:34:55.268Z,3.40
2017-11-29T18:37:23.460Z,3.40
2017-11-29T18:39:50.897Z,3.40
2017-11-29T18:42:19.123Z,3.40
2017-11-29T18:44:46.566Z,3.40
2017-11-29T18:47:14.035Z,3.30
2017-11-29T18:49:41.474Z,3.30
2017-11-29T18:52:08.904Z,3.30
2017-11-29T18:54:37.116Z,3.40
2017-11-29T18:57:04.562Z,3.40
2017-11-29T18:59:32.065Z,3.50
2017-11-29T19:01:59.490Z,3.50
2017-11-29T19:04:26.933Z,3.40
2017-11-29T19:06:54.372Z,3.40
2017-11-29T19:09:21.813Z,3.40
2017-11-29T19:11:50.018Z,3.00
2017-11-29T19:14:17.447Z,3.00
2017-11-29T19:16:45.666Z,3.00
2017-11-29T19:19:13.897Z,3.00
2017-11-29T19:21:42.095Z,3.10
2017-11-29T19:24:09.547Z,3.10
2017-11-29T19:26:36.976Z,3.10
2017-11-29T19:29:05.185Z,3.00
2017-11-29T19:31:32.660Z,3.00
2017-11-29T19:34:00.107Z,2.90
2017-11-29T19:36:27.540Z,2.90
2017-11-29T19:38:54.982Z,3.00
2017-11-29T19:41:23.285Z,3.10
2017-11-29T19:43:50.714Z,3.00
2017-11-29T19:46:18.916Z,3.10
2017-11-29T19:48:46.396Z,3.10
2017-11-29T19:51:13.828Z,3.10
2017-11-29T19:53:41.270Z,2.90
2017-11-29T19:56:08.711Z,2.80
2017-11-29T19:58:36.907Z,2.90
2017-11-29T20:01:04.393Z,2.90
2017-11-29T20:03:31.828Z,2.80
2017-11-29T20:05:59.624Z,2.90
2017-11-29T20:08:27.065Z,2.90
2017-11-29T20:10:54.500Z,2.90
2017-11-29T20:13:22.448Z,2.90
2017-11-29T20:15:50.660Z,2.90
2017-11-29T20:18:18.123Z,2.90
2017-11-29T20:20:45.552Z,3.00
2017-11-29T20:23:12.997Z,3.10
2017-11-29T20:25:40.440Z,3.10
2017-11-29T20:28:09.003Z,3.00
2017-11-29T20:30:37.221Z,2.90
2017-11-29T20:33:04.661Z,2.90
2017-11-29T20:35:32.865Z,2.80
2017-11-29T20:38:00.295Z,2.80
2017-11-29T20:40:27.736Z,2.60
2017-11-29T20:42:56.052Z,2.50
2017-11-29T20:45:23.492Z,2.50
2017-11-29T20:47:50.929Z,2.50
2017-11-29T20:50:19.647Z,2.60
2017-11-29T20:52:54.911Z,2.50
2017-11-29T20:55:22.352Z,2.50
2017-11-29T20:57:49.797Z,2.60
2017-11-29T21:00:17.223Z,2.60
2017-11-29T21:02:45.437Z,2.60
2017-11-29T21:05:12.868Z,2.60
2017-11-29T21:07:40.609Z,2.60
2017-11-29T21:10:08.807Z,2.50
2017-11-29T21:12:36.256Z,2.50
2017-11-29T21:15:03.689Z,2.50
2017-11-29T21:17:31.128Z,2.50
2017-11-29T21:19:58.561Z,2.20
2017-11-29T21:22:26.020Z,2.20
2017-11-29T21:24:53.456Z,2.20
2017-11-29T21:27:20.937Z,2.20
2017-11-29T21:29:48.372Z,2.20
2017-11-29T21:32:15.813Z,2.20
2017-11-29T21:34:43.252Z,2.20
2017-11-29T21:37:11.772Z,2.10
2017-11-29T21:39:40.011Z,2.10
2017-11-29T21:42:08.236Z,1.90
2017-11-29T21:44:35.677Z,1.90
2017-11-29T21:47:03.172Z,1.90
2017-11-29T21:49:32.494Z,1.90
2017-11-29T21:51:59.983Z,1.90
2017-11-29T21:54:27.412Z,1.90
2017-11-29T21:56:55.615Z,2.00
2017-11-29T21:59:23.059Z,1.90
2017-11-29T22:01:50.500Z,1.90
2017-11-29T22:04:18.695Z,1.70
2017-11-29T22:06:46.144Z,1.70
2017-11-29T22:09:13.575Z,1.70
2017-11-29T22:11:41.817Z,1.60
2017-11-29T22:14:09.247Z,1.50
2017-11-29T22:16:37.026Z,1.50
2017-11-29T22:19:05.308Z,1.60
2017-11-29T22:21:32.748Z,1.60
2017-11-29T22:24:00.184Z,1.60
2017-11-29T22:26:28.087Z,1.60
2017-11-29T22:28:55.535Z,1.60
2017-11-29T22:31:22.992Z,1.70
2017-11-29T22:33:50.433Z,1.70
2017-11-29T22:36:17.865Z,1.70
2017-11-29T22:38:46.065Z,1.80
2017-11-29T22:41:13.492Z,1.80
2017-11-29T22:43:41.697Z,1.70
2017-11-29T22:46:09.169Z,1.70
2017-11-29T22:48:36.636Z,1.60
2017-11-29T22:51:04.063Z,1.60
2017-11-29T22:53:31.508Z,1.60
2017-11-29T22:55:58.932Z,1.60
2017-11-29T22:58:26.373Z,1.60
2017-11-29T23:00:53.804Z,1.60
2017-11-29T23:03:21.273Z,1.60
2017-11-29T23:05:48.704Z,1.60
2017-11-29T23:08:16.147Z,1.70
2017-11-29T23:10:43.628Z,1.70
2017-11-29T23:13:11.072Z,1.70
2017-11-29T23:15:38.509Z,1.70
2017-11-29T23:18:05.935Z,1.70
2017-11-29T23:20:33.992Z,1.70
2017-11-29T23:23:01.415Z,1.70
2017-11-29T23:25:28.888Z,1.70
2017-11-29T23:27:56.316Z,1.50
2017-11-29T23:30:23.750Z,1.40
2017-11-29T23:32:51.952Z,1.50
2017-11-29T23:35:19.392Z,1.50
2017-11-29T23:37:46.811Z,1.50
2017-11-29T23:40:14.340Z,1.40
2017-11-29T23:42:42.194Z,1.40
2017-11-29T23:45:09.628Z,1.40
2017-11-29T23:47:37.056Z,1.50
2017-11-29T23:50:05.264Z,1.60
2017-11-29T23:52:32.695Z,1.60
2017-11-29T23:55:00.896Z,1.70
2017-11-29T23:57:28.324Z,1.70
2017-11-29T23:59:56.538Z,1.90
